createdAt,value
2023-04-04T00:02:42.276Z,0.07
2023-04-04T00:09:24.467Z,0.06
2023-04-04T00:16:07.281Z,0.06
2023-04-04T00:22:49.540Z,0.03
2023-04-04T00:29:34.309Z,0.01
2023-04-04T00:36:17.488Z,-0.02
2023-04-04T00:43:00.562Z,-0.03
2023-04-04T00:49:43.529Z,-0.05
2023-04-04T00:56:26.128Z,-0.06
2023-04-04T01:03:12.644Z,-0.06
2023-04-04T01:09:58.225Z,-0.06
2023-04-04T01:16:41.991Z,-0.08
2023-04-04T01:23:54.018Z,-0.11
2023-04-04T01:30:40.738Z,-0.14
2023-04-04T01:37:44.629Z,-0.18
2023-04-04T01:44:27.799Z,-0.20
2023-04-04T01:51:10.357Z,-0.21
2023-04-04T01:57:52.816Z,-0.23
2023-04-04T02:04:35.382Z,-0.23
2023-04-04T02:11:17.713Z,-0.23
2023-04-04T02:18:01.984Z,-0.24
2023-04-04T02:24:44.606Z,-0.25
2023-04-04T02:31:27.324Z,-0.25
2023-04-04T02:38:10.000Z,-0.26
2023-04-04T02:44:56.897Z,-0.26
2023-04-04T02:51:39.345Z,-0.28
2023-04-04T02:58:22.565Z,-0.26
2023-04-04T03:05:05.705Z,-0.25
2023-04-04T03:11:48.152Z,-0.23
2023-04-04T03:18:30.683Z,-0.23
2023-04-04T03:25:13.151Z,-0.25
2023-04-04T03:31:55.522Z,-0.23
2023-04-04T03:38:38.584Z,-0.21
2023-04-04T03:45:21.889Z,-0.19
2023-04-04T03:52:04.419Z,-0.18
2023-04-04T03:58:48.571Z,-0.17
2023-04-04T04:05:34.949Z,-0.18
2023-04-04T04:12:17.316Z,-0.19
2023-04-04T04:18:59.709Z,-0.20
2023-04-04T04:25:51.831Z,-0.18
2023-04-04T04:32:37.776Z,-0.16
2023-04-04T04:39:20.676Z,-0.15
2023-04-04T04:46:18.855Z,-0.13
2023-04-04T04:53:01.645Z,-0.09
2023-04-04T04:59:44.250Z,-0.08
2023-04-04T05:06:29.079Z,-0.05
2023-04-04T05:13:12.135Z,0.02
2023-04-04T05:19:58.812Z,0.09
2023-04-04T05:26:41.424Z,0.13
2023-04-04T05:33:23.834Z,0.12
2023-04-04T05:40:16.256Z,0.14
2023-04-04T05:47:02.273Z,0.18
2023-04-04T05:53:45.801Z,0.28
2023-04-04T06:00:33.224Z,0.46
2023-04-04T06:07:21.404Z,0.68
2023-04-04T06:14:05.619Z,0.81
2023-04-04T06:20:47.839Z,0.87
2023-04-04T06:27:31.927Z,0.95
2023-04-04T06:34:16.668Z,0.98
2023-04-04T06:41:08.398Z,0.96
2023-04-04T06:47:53.527Z,0.95
2023-04-04T06:54:35.942Z,0.95
2023-04-04T07:01:18.489Z,1.04
2023-04-04T07:08:01.815Z,1.16
2023-04-04T07:14:44.004Z,1.22
2023-04-04T07:21:26.105Z,1.26
2023-04-04T07:28:12.786Z,1.64
2023-04-04T07:34:55.698Z,2.10
2023-04-04T07:41:37.847Z,2.58
2023-04-04T07:48:21.691Z,2.88
2023-04-04T07:55:07.429Z,3.00
2023-04-04T08:01:49.844Z,3.12
2023-04-04T08:08:32.359Z,2.99
2023-04-04T08:15:14.853Z,2.85
2023-04-04T08:21:57.709Z,2.71
2023-04-04T08:28:39.990Z,2.48
2023-04-04T08:35:22.210Z,2.31
2023-04-04T08:42:07.542Z,2.29
2023-04-04T08:48:51.584Z,2.32
2023-04-04T08:55:33.846Z,2.26
2023-04-04T09:03:04.388Z,2.17
2023-04-04T09:09:47.920Z,2.20
2023-04-04T09:16:31.141Z,2.09
2023-04-04T09:23:20.285Z,2.22
2023-04-04T09:30:05.447Z,2.74
2023-04-04T09:36:48.518Z,3.23
2023-04-04T09:43:32.301Z,3.82
2023-04-04T09:50:23.693Z,4.21
2023-04-04T09:57:07.916Z,4.67
2023-04-04T10:03:54.899Z,4.89
2023-04-04T10:11:06.477Z,4.85
2023-04-04T10:17:55.572Z,5.10
2023-04-04T10:24:37.742Z,5.27
2023-04-04T10:31:25.782Z,5.46
2023-04-04T10:38:08.518Z,5.68
2023-04-04T10:44:51.295Z,5.59
2023-04-04T10:51:39.418Z,5.62
2023-04-04T10:58:29.136Z,5.79
2023-04-04T11:05:22.878Z,5.93
2023-04-04T11:12:10.049Z,5.92
2023-04-04T11:18:52.575Z,5.55
2023-04-04T11:25:37.684Z,5.62
2023-04-04T11:32:50.159Z,5.86
2023-04-04T11:39:59.135Z,6.02
2023-04-04T11:46:41.602Z,6.27
2023-04-04T11:53:23.788Z,6.33
2023-04-04T12:00:08.902Z,6.29
2023-04-04T12:06:56.636Z,6.30
2023-04-04T12:13:44.858Z,6.43
2023-04-04T12:20:27.257Z,6.76
2023-04-04T12:27:09.798Z,6.96
2023-04-04T12:33:52.119Z,7.27
2023-04-04T12:40:37.579Z,7.09
2023-04-04T12:47:22.461Z,6.87
2023-04-04T12:54:06.838Z,7.02
2023-04-04T13:00:52.612Z,7.13
2023-04-04T13:07:43.634Z,6.84
2023-04-04T13:14:48.974Z,6.84
2023-04-04T13:21:31.329Z,6.96
2023-04-04T13:28:14.395Z,7.05
2023-04-04T13:34:56.623Z,7.23
2023-04-04T13:41:38.823Z,7.22
2023-04-04T13:48:21.234Z,7.13
2023-04-04T13:55:06.054Z,6.83
2023-04-04T14:01:48.347Z,6.89
2023-04-04T14:08:31.243Z,7.16
2023-04-04T14:15:14.978Z,7.46
2023-04-04T14:22:02.297Z,7.32
2023-04-04T14:28:44.572Z,7.52
2023-04-04T14:35:26.810Z,7.51
2023-04-04T14:42:09.373Z,7.43
2023-04-04T14:48:53.256Z,7.30
2023-04-04T14:55:35.652Z,7.08
2023-04-04T15:02:22.169Z,7.04
2023-04-04T15:09:08.773Z,7.11
2023-04-04T15:15:50.936Z,6.95
2023-04-04T15:22:33.175Z,6.55
2023-04-04T15:29:15.745Z,6.14
2023-04-04T15:35:57.910Z,5.91
2023-04-04T15:42:40.033Z,5.63
2023-04-04T15:49:22.224Z,5.56
2023-04-04T15:56:04.606Z,5.62
2023-04-04T16:02:46.997Z,5.54
2023-04-04T16:09:29.533Z,5.16
2023-04-04T16:16:11.878Z,4.71
2023-04-04T16:22:55.018Z,4.40
2023-04-04T16:29:38.205Z,4.25
2023-04-04T16:36:20.556Z,4.21
2023-04-04T16:43:02.737Z,3.87
2023-04-04T16:49:47.174Z,3.33
2023-04-04T16:56:30.676Z,2.80
2023-04-04T17:03:12.853Z,2.45
2023-04-04T17:09:55.454Z,2.19
2023-04-04T17:16:37.672Z,1.96
2023-04-04T17:23:19.900Z,1.78
2023-04-04T17:30:04.045Z,1.56
2023-04-04T17:36:46.516Z,1.38
2023-04-04T17:43:30.133Z,1.23
2023-04-04T17:50:12.663Z,1.08
2023-04-04T17:56:54.855Z,0.91
2023-04-04T18:03:37.536Z,0.79
2023-04-04T18:10:20.619Z,0.69
2023-04-04T18:17:03.019Z,0.57
2023-04-04T18:23:45.583Z,0.44
2023-04-04T18:30:28.126Z,0.29
2023-04-04T18:37:12.355Z,0.15
2023-04-04T18:43:54.737Z,0.04
2023-04-04T18:50:37.126Z,0.02
2023-04-04T18:57:19.854Z,0.05
2023-04-04T19:04:04.299Z,0.17
2023-04-04T19:10:51.037Z,0.23
2023-04-04T19:17:33.542Z,0.22
2023-04-04T19:24:15.720Z,0.22
2023-04-04T19:31:11.089Z,0.20
2023-04-04T19:37:53.306Z,0.18
2023-04-04T19:44:40.896Z,0.15
2023-04-04T19:51:23.021Z,0.14
2023-04-04T19:58:05.995Z,0.22
2023-04-04T20:04:48.443Z,0.28
2023-04-04T20:11:35.940Z,0.34
2023-04-04T20:18:25.246Z,0.38
2023-04-04T20:25:32.896Z,0.38
2023-04-04T20:32:16.164Z,0.37
2023-04-04T20:38:58.956Z,0.36
2023-04-04T20:45:45.045Z,0.35
2023-04-04T20:52:27.340Z,0.36
2023-04-04T20:59:27.785Z,0.33
2023-04-04T21:06:14.441Z,0.26
2023-04-04T21:12:59.085Z,0.25
2023-04-04T21:19:41.447Z,0.26
2023-04-04T21:26:35.804Z,0.25
2023-04-04T21:33:19.281Z,0.23
2023-04-04T21:40:01.772Z,0.22
2023-04-04T21:46:44.231Z,0.19
2023-04-04T21:53:26.497Z,0.17
2023-04-04T22:00:09.809Z,0.16
2023-04-04T22:06:52.042Z,0.13
2023-04-04T22:13:34.711Z,0.15
2023-04-04T22:20:19.743Z,0.14
2023-04-04T22:27:03.919Z,0.16
2023-04-04T22:33:46.130Z,0.17
2023-04-04T22:40:29.214Z,0.17
2023-04-04T22:47:12.068Z,0.19
2023-04-04T22:53:57.976Z,0.21
2023-04-04T23:00:40.355Z,0.17
2023-04-04T23:07:23.079Z,0.16
2023-04-04T23:14:09.971Z,0.16
2023-04-04T23:20:53.052Z,0.15
2023-04-04T23:27:35.433Z,0.13
2023-04-04T23:34:17.652Z,0.12
2023-04-04T23:40:59.758Z,0.13
2023-04-04T23:47:42.155Z,0.11
2023-04-04T23:54:24.516Z,0.04
